Time;durP1;ratioP1;P1;durP2;ratioP2;P2;SDS_P1;SDS_P2;PMS_P1;PMS_P2;Temp;Humidity;BMP_temperature;BMP_pressure;BME280_temperature;BME280_humidity;BME280_pressure;Samples;Min_cycle;Max_cycle;Signal;HPM_P1;HPM_P2
2023/05/17 00:00:13;;;;;;;;;3.50;2.50;;;;;11.81;68.29;102499.91;5038677;28;10000;-67
2023/05/17 00:02:40;;;;;;;;;4.75;4.00;;;;;11.78;68.31;102500.22;5035779;28;10032;-68
2023/05/17 00:05:06;;;;;;;;;5.00;2.75;;;;;11.76;68.29;102502.25;5047853;28;9924;-68
2023/05/17 00:07:33;;;;;;;;;3.00;3.00;;;;;11.76;68.52;102496.00;5048055;28;10058;-67
2023/05/17 00:09:59;;;;;;;;;2.75;2.50;;;;;11.76;68.32;102494.16;5044349;28;11025;-68
2023/05/17 00:12:26;;;;;;;;;4.50;4.50;;;;;11.77;68.36;102495.00;5039262;28;10164;-67
2023/05/17 00:14:52;;;;;;;;;4.00;4.00;;;;;11.77;68.85;102495.00;5042875;28;10081;-68
2023/05/17 00:17:19;;;;;;;;;10.25;3.00;;;;;11.78;68.54;102500.22;5044119;28;10146;-67
2023/05/17 00:19:45;;;;;;;;;3.00;3.00;;;;;11.78;69.05;102508.31;5048446;28;9957;-67
2023/05/17 00:22:12;;;;;;;;;4.00;3.00;;;;;11.80;68.77;102500.06;5042083;28;10019;-68
2023/05/17 00:24:38;;;;;;;;;5.00;4.50;;;;;11.79;69.10;102499.22;5042245;28;10214;-68
2023/05/17 00:27:05;;;;;;;;;6.25;4.50;;;;;11.81;68.89;102491.81;5050282;28;10230;-67
2023/05/17 00:29:31;;;;;;;;;7.75;5.00;;;;;11.81;68.96;102489.09;5047711;28;10886;-68
2023/05/17 00:31:58;;;;;;;;;9.00;5.00;;;;;11.81;69.07;102486.41;5050355;28;10315;-68
2023/05/17 00:34:25;;;;;;;;;5.00;5.00;;;;;11.82;69.25;102489.94;5043654;28;10189;-68
2023/05/17 00:36:51;;;;;;;;;4.50;4.50;;;;;11.81;69.36;102501.75;5042727;28;10160;-68
2023/05/17 00:39:18;;;;;;;;;5.50;5.00;;;;;11.81;69.43;102491.81;5049261;28;10222;-67
2023/05/17 00:41:44;;;;;;;;;8.00;6.00;;;;;11.83;69.69;102489.84;5050078;28;11090;-68
2023/05/17 00:44:11;;;;;;;;;6.00;4.25;;;;;11.84;69.46;102496.06;5049059;28;10164;-67
2023/05/17 00:46:37;;;;;;;;;6.50;5.00;;;;;11.85;69.77;102497.75;5049774;28;9975;-68
2023/05/17 00:49:04;;;;;;;;;5.00;5.00;;;;;11.86;69.93;102497.59;5039808;28;9852;-69
2023/05/17 00:51:32;;;;;;;;;7.50;5.25;;;;;11.88;69.84;102486.66;5046637;28;10075;-67
2023/05/17 00:53:58;;;;;;;;;6.00;2.25;;;;;11.88;69.79;102490.19;5049369;28;10192;-68
2023/05/17 00:56:25;;;;;;;;;5.00;5.00;;;;;11.91;70.11;102482.75;5031306;28;9977;-67
2023/05/17 00:58:53;;;;;;;;;2.00;2.00;;;;;11.91;70.09;102475.53;5040403;28;10107;-68
2023/05/17 01:01:20;;;;;;;;;3.50;3.50;;;;;11.93;70.00;102478.06;5041891;28;10007;-68
2023/05/17 01:03:47;;;;;;;;;5.50;4.00;;;;;11.94;70.09;102477.03;5059764;28;9996;-67
2023/05/17 01:06:13;;;;;;;;;8.00;7.50;;;;;11.94;69.97;102466.25;5050283;28;9919;-68
2023/05/17 01:08:41;;;;;;;;;5.75;3.00;;;;;11.92;70.46;102468.28;5048766;28;10141;-67
2023/05/17 01:11:41;;;;;;;;;4.25;2.00;;;;;11.95;70.81;102465.22;5050277;28;9902;-68
2023/05/17 01:14:17;;;;;;;;;6.00;5.00;;;;;11.97;70.62;102474.88;5046398;28;9917;-68
2023/05/17 01:17:08;;;;;;;;;5.00;4.00;;;;;12.00;70.33;102481.81;5047393;28;9907;-67
2023/05/17 01:20:09;;;;;;;;;5.50;5.50;;;;;11.98;70.64;102484.66;5039479;28;10004;-67
2023/05/17 01:23:02;;;;;;;;;7.50;4.75;;;;;12.00;70.97;102479.09;5062379;28;10115;-68
2023/05/17 01:25:28;;;;;;;;;2.00;2.00;;;;;11.99;70.75;102478.25;5038981;28;9935;-68
2023/05/17 01:27:59;;;;;;;;;3.00;3.00;;;;;11.97;70.76;102485.66;5034090;28;10708;-67
2023/05/17 01:30:28;;;;;;;;;3.50;2.00;;;;;11.96;70.90;102485.84;5041642;28;10015;-67
2023/05/17 01:32:57;;;;;;;;;6.25;3.75;;;;;11.96;70.83;102483.97;5042850;28;9942;-67
2023/05/17 01:35:24;;;;;;;;;5.25;5.25;;;;;11.91;70.79;102490.84;5044219;28;10733;-67
2023/05/17 01:37:52;;;;;;;;;8.00;6.00;;;;;11.87;70.76;102483.09;5030351;28;10683;-67
2023/05/17 01:40:19;;;;;;;;;2.50;2.50;;;;;11.87;70.91;102479.56;5037724;28;9837;-67
2023/05/17 01:42:53;;;;;;;;;6.00;3.50;;;;;11.92;70.95;102481.78;5043018;28;9843;-67
2023/05/17 01:45:29;;;;;;;;;3.00;3.00;;;;;11.95;70.83;102486.81;5040442;28;9756;-67
2023/05/17 01:48:33;;;;;;;;;2.00;2.00;;;;;11.98;70.84;102481.09;5036541;28;10604;-67
2023/05/17 01:51:01;;;;;;;;;5.75;2.75;;;;;11.98;70.54;102483.81;5033602;28;9694;-66
2023/05/17 01:53:45;;;;;;;;;6.00;3.50;;;;;11.99;70.59;102489.06;5032804;28;10069;-67
2023/05/17 01:56:20;;;;;;;;;5.00;5.00;;;;;11.99;70.64;102489.06;5045120;28;9935;-67
2023/05/17 01:58:47;;;;;;;;;5.50;5.50;;;;;11.95;70.25;102493.09;5036873;28;10005;-67
2023/05/17 02:01:17;;;;;;;;;4.75;4.75;;;;;11.96;70.83;102493.94;5032078;28;10662;-67
2023/05/17 02:03:48;;;;;;;;;2.00;2.00;;;;;11.97;70.56;102492.91;5039882;28;9920;-68
2023/05/17 02:06:16;;;;;;;;;6.50;6.50;;;;;11.93;70.60;102496.94;5048103;28;9977;-68
2023/05/17 02:08:42;;;;;;;;;7.00;5.50;;;;;11.90;70.45;102498.09;5041936;28;10152;-68
2023/05/17 02:11:09;;;;;;;;;4.25;2.50;;;;;11.91;70.85;102498.94;5048152;28;10790;-68
2023/05/17 02:13:35;;;;;;;;;6.50;4.50;;;;;11.90;70.95;102492.72;5046802;28;9904;-68
2023/05/17 02:16:03;;;;;;;;;1.75;1.75;;;;;11.87;71.02;102491.19;5042924;28;10033;-67
2023/05/17 02:18:33;;;;;;;;;3.50;3.50;;;;;11.86;71.13;102494.03;5036100;28;9824;-67
2023/05/17 02:21:01;;;;;;;;;5.50;3.50;;;;;11.86;71.04;102497.59;5046330;28;9855;-67
2023/05/17 02:23:27;;;;;;;;;4.75;4.25;;;;;11.83;70.67;102494.41;5042469;28;9829;-68
2023/05/17 02:25:54;;;;;;;;;2.00;2.00;;;;;11.74;70.49;102501.53;5047410;28;9910;-67
2023/05/17 02:28:20;;;;;;;;;2.75;2.75;;;;;11.69;70.68;102503.03;5047994;28;9975;-67
2023/05/17 02:30:47;;;;;;;;;2.00;2.00;;;;;11.60;70.70;102507.56;5034029;28;10026;-68
2023/05/17 02:33:13;;;;;;;;;4.75;3.25;;;;;11.63;71.12;102509.94;5045226;28;9820;-67
2023/05/17 02:35:40;;;;;;;;;4.25;2.50;;;;;11.61;70.47;102515.47;5045746;28;9753;-69
2023/05/17 02:38:06;;;;;;;;;4.00;2.00;;;;;11.61;70.46;102523.56;5051891;28;10754;-67
2023/05/17 02:40:33;;;;;;;;;6.00;4.00;;;;;11.60;70.40;102523.75;5048755;28;9858;-68
2023/05/17 02:43:01;;;;;;;;;2.00;2.00;;;;;11.61;70.43;102517.31;5016334;28;10061;-67
2023/05/17 02:45:27;;;;;;;;;2.25;2.25;;;;;11.56;70.07;102519.66;5056660;28;9799;-68
2023/05/17 02:47:54;;;;;;;;;2.25;2.25;;;;;11.49;70.09;102529.41;5051281;28;9844;-68
2023/05/17 02:50:21;;;;;;;;;3.00;3.00;;;;;11.41;70.11;102516.69;5044572;28;9937;-67
2023/05/17 02:52:48;;;;;;;;;1.75;1.75;;;;;11.43;70.34;102527.34;5051683;28;9723;-66
2023/05/17 02:55:14;;;;;;;;;1.75;1.75;;;;;11.46;70.07;102525.16;5039908;28;9989;-67
2023/05/17 02:57:41;;;;;;;;;4.00;2.00;;;;;11.45;70.53;102530.72;5050095;28;9987;-67
2023/05/17 03:00:08;;;;;;;;;4.00;1.25;;;;;11.45;70.21;102541.50;5040938;28;9905;-67
2023/05/17 03:02:35;;;;;;;;;3.00;1.00;;;;;11.36;70.08;102541.44;5050854;28;9884;-68
2023/05/17 03:05:03;;;;;;;;;1.75;1.75;;;;;11.36;70.14;102536.06;5046634;28;9849;-68
2023/05/17 03:07:30;;;;;;;;;3.75;2.00;;;;;11.38;69.81;102549.38;5045280;28;9749;-69
2023/05/17 03:09:57;;;;;;;;;5.75;3.75;;;;;11.36;69.96;102540.59;5042749;28;10483;-68
2023/05/17 03:12:26;;;;;;;;;4.00;2.00;;;;;11.33;69.84;102544.44;5048256;28;9982;-68
2023/05/17 03:14:55;;;;;;;;;2.00;2.00;;;;;11.32;69.89;102545.47;5043633;28;10005;-68
2023/05/17 03:17:22;;;;;;;;;3.25;1.25;;;;;11.33;69.77;102549.00;5062504;28;10031;-68
2023/05/17 03:19:49;;;;;;;;;2.00;2.00;;;;;11.29;69.50;102540.38;5053493;28;9922;-68
2023/05/17 03:22:16;;;;;;;;;5.00;1.75;;;;;11.27;69.16;102542.41;5050614;28;9931;-68
2023/05/17 03:24:43;;;;;;;;;2.00;2.00;;;;;11.27;68.99;102539.69;5047055;28;10577;-68
2023/05/17 03:27:09;;;;;;;;;2.75;2.00;;;;;11.25;68.83;102549.78;5047244;28;9893;-68
2023/05/17 03:29:36;;;;;;;;;1.25;1.25;;;;;11.23;68.47;102543.72;5045155;28;9989;-68
2023/05/17 03:32:04;;;;;;;;;1.00;1.00;;;;;11.22;68.75;102549.25;5049780;28;9873;-67
2023/05/17 03:34:31;;;;;;;;;1.00;1.00;;;;;11.20;68.35;102540.47;5041082;28;10033;-67
2023/05/17 03:36:57;;;;;;;;;1.75;1.75;;;;;11.18;68.13;102543.34;5051334;28;10480;-69
2023/05/17 03:39:24;;;;;;;;;0.00;0.00;;;;;11.17;67.94;102555.09;5049708;28;9909;-70
2023/05/17 03:41:50;;;;;;;;;4.00;2.25;;;;;11.17;67.70;102557.81;5056069;28;10013;-68
2023/05/17 03:44:18;;;;;;;;;0.50;0.50;;;;;11.19;67.71;102557.66;5053184;28;10054;-68
2023/05/17 03:46:45;;;;;;;;;1.50;0.00;;;;;11.18;67.67;102564.91;5044620;28;9949;-68
2023/05/17 03:49:11;;;;;;;;;2.00;1.25;;;;;11.17;67.48;102565.06;5046130;28;9915;-68
2023/05/17 03:51:38;;;;;;;;;2.00;0.00;;;;;11.14;67.67;102564.38;5025531;28;10089;-69
2023/05/17 03:54:05;;;;;;;;;0.50;0.50;;;;;11.14;67.30;102568.91;5045256;28;9909;-69
2023/05/17 03:56:31;;;;;;;;;4.25;0.00;;;;;11.11;67.44;102558.44;5042587;28;9926;-68
2023/05/17 03:58:58;;;;;;;;;0.00;0.00;;;;;11.09;67.48;102566.66;5048608;28;10156;-68
2023/05/17 04:01:26;;;;;;;;;0.75;0.75;;;;;11.10;67.47;102572.91;5052940;28;9762;-68
2023/05/17 04:03:52;;;;;;;;;1.75;0.25;;;;;11.09;67.58;102571.22;5046278;28;9908;-68
2023/05/17 04:06:20;;;;;;;;;4.50;1.75;;;;;11.09;67.73;102576.59;5040753;28;9995;-69
2023/05/17 04:08:47;;;;;;;;;2.00;1.00;;;;;11.06;67.31;102579.59;5043555;28;9995;-68
2023/05/17 04:11:14;;;;;;;;;2.00;1.50;;;;;11.06;67.57;102579.59;5044733;28;10228;-67
2023/05/17 04:13:41;;;;;;;;;1.25;1.00;;;;;11.03;67.53;102575.38;5043561;28;10091;-68
2023/05/17 04:16:08;;;;;;;;;1.00;1.00;;;;;11.03;67.55;102582.63;5062807;23;10099;-67
2023/05/17 04:18:37;;;;;;;;;2.00;1.00;;;;;11.03;67.73;102588.88;5008430;28;10085;-66
2023/05/17 04:21:05;;;;;;;;;1.75;0.25;;;;;11.04;67.66;102590.53;5010478;28;10906;-66
2023/05/17 04:23:33;;;;;;;;;1.00;1.00;;;;;11.04;67.08;102595.94;4996054;28;9966;-65
2023/05/17 04:26:02;;;;;;;;;5.00;0.25;;;;;11.02;67.37;102600.66;5012151;28;9849;-65
2023/05/17 04:28:31;;;;;;;;;1.00;1.00;;;;;11.02;67.45;102599.78;5004987;28;9919;-65
2023/05/17 04:30:57;;;;;;;;;2.00;1.00;;;;;11.00;67.24;102609.88;5000015;28;10150;-66
2023/05/17 04:33:25;;;;;;;;;0.00;0.00;;;;;11.02;67.79;102616.81;5004245;28;9998;-66
2023/05/17 04:35:55;;;;;;;;;4.25;2.50;;;;;11.08;67.57;102618.88;5000927;28;10679;-66
2023/05/17 04:38:23;;;;;;;;;0.00;0.00;;;;;11.13;67.14;102621.09;5007692;28;10014;-66
2023/05/17 04:40:50;;;;;;;;;0.75;0.00;;;;;11.16;66.94;102626.19;5003349;28;10102;-66
2023/05/17 04:43:17;;;;;;;;;1.00;1.00;;;;;11.17;66.80;102632.44;5007760;28;10018;-67
2023/05/17 04:45:45;;;;;;;;;5.00;5.00;;;;;11.14;66.35;102623.66;4982487;28;10003;-66
2023/05/17 04:48:11;;;;;;;;;1.00;1.00;;;;;11.12;66.30;102630.22;5002925;28;9931;-66
2023/05/17 04:50:38;;;;;;;;;0.50;0.50;;;;;11.13;65.94;102638.13;5003316;28;10800;-67
2023/05/17 04:53:04;;;;;;;;;2.00;1.00;;;;;11.20;66.24;102637.53;5007163;28;10013;-66
2023/05/17 04:55:35;;;;;;;;;1.25;0.00;;;;;11.26;65.71;102643.16;5006493;28;9906;-66
2023/05/17 04:58:02;;;;;;;;;0.75;0.75;;;;;11.36;66.06;102643.91;5004640;28;9760;-66
2023/05/17 05:00:29;;;;;;;;;1.25;0.75;;;;;11.45;65.28;102650.22;5001726;28;10034;-66
2023/05/17 05:03:03;;;;;;;;;1.75;1.75;;;;;11.51;65.09;102651.47;5004588;28;9744;-66
2023/05/17 05:05:30;;;;;;;;;1.75;1.00;;;;;11.53;64.68;102649.44;5007534;28;9778;-67
2023/05/17 05:07:57;;;;;;;;;0.00;0.00;;;;;11.56;64.38;102657.22;4999529;28;9742;-66
2023/05/17 05:10:23;;;;;;;;;2.75;2.00;;;;;11.53;64.48;102665.63;5001892;28;9660;-66
2023/05/17 05:12:50;;;;;;;;;1.00;1.00;;;;;11.49;64.38;102665.06;5009432;28;10601;-67
2023/05/17 05:15:17;;;;;;;;;2.50;1.50;;;;;11.44;64.78;102667.41;4992695;28;9934;-67
2023/05/17 05:17:50;;;;;;;;;1.00;1.00;;;;;11.38;64.98;102673.41;5001761;28;9870;-66
2023/05/17 05:20:18;;;;;;;;;1.75;1.00;;;;;11.39;64.60;102678.66;4993692;28;10638;-67
2023/05/17 05:22:45;;;;;;;;;1.00;1.00;;;;;11.42;64.80;102679.34;4997997;28;9939;-67
2023/05/17 05:25:12;;;;;;;;;2.00;1.00;;;;;11.38;64.68;102679.66;5007285;28;10025;-67
2023/05/17 05:27:39;;;;;;;;;1.75;1.75;;;;;11.34;64.21;102683.66;5008431;28;10027;-66
2023/05/17 05:30:06;;;;;;;;;3.00;1.75;;;;;11.34;64.74;102685.50;5011502;28;9910;-66
2023/05/17 05:32:32;;;;;;;;;2.00;2.00;;;;;11.39;64.48;102691.28;5003337;28;9901;-66
2023/05/17 05:34:59;;;;;;;;;3.50;1.25;;;;;11.39;64.67;102697.53;5026042;28;10087;-66
2023/05/17 05:37:26;;;;;;;;;0.50;0.50;;;;;11.41;64.41;102691.97;4996798;28;10799;-66
2023/05/17 05:39:53;;;;;;;;;0.00;0.00;;;;;11.49;64.78;102697.44;5008856;28;9995;-66
2023/05/17 05:42:19;;;;;;;;;0.75;0.50;;;;;11.52;63.90;102696.28;4993803;28;9923;-66
2023/05/17 05:44:46;;;;;;;;;1.00;1.00;;;;;11.54;64.30;102705.91;4985961;28;9912;-66
2023/05/17 05:47:13;;;;;;;;;3.75;1.00;;;;;11.58;64.30;102709.13;5007234;28;10103;-67
2023/05/17 05:49:39;;;;;;;;;2.00;2.00;;;;;11.61;64.40;102715.06;5008157;28;10561;-66
2023/05/17 05:52:07;;;;;;;;;1.00;0.00;;;;;11.64;64.19;102716.63;4998401;28;10100;-66
2023/05/17 05:54:35;;;;;;;;;1.00;1.00;;;;;11.69;63.78;102716.16;5010004;28;9892;-66
2023/05/17 05:57:01;;;;;;;;;5.00;2.00;;;;;11.78;63.71;102717.91;5011565;28;10147;-67
2023/05/17 05:59:28;;;;;;;;;0.00;0.00;;;;;11.81;63.21;102720.31;5020318;28;9849;-66
2023/05/17 06:01:56;;;;;;;;;1.25;1.25;;;;;11.82;63.16;102720.13;5005288;28;9766;-67
2023/05/17 06:04:23;;;;;;;;;0.00;0.00;;;;;11.82;63.05;102719.28;4982781;28;10018;-66
2023/05/17 06:07:09;;;;;;;;;2.00;2.00;;;;;11.86;63.13;102721.56;5019003;28;9863;-67
2023/05/17 06:09:36;;;;;;;;;3.75;0.75;;;;;11.91;62.68;102729.22;5018291;28;9836;-67
2023/05/17 06:12:02;;;;;;;;;1.00;1.00;;;;;11.90;62.06;102732.88;5019521;28;9872;-67
2023/05/17 06:14:29;;;;;;;;;1.00;1.00;;;;;11.93;62.07;102742.53;5014294;28;9838;-67
2023/05/17 06:16:55;;;;;;;;;2.25;1.00;;;;;11.85;61.32;102741.44;5014306;28;9916;-67
2023/05/17 06:19:22;;;;;;;;;2.00;1.00;;;;;11.79;61.14;102736.66;5018601;28;9753;-66
2023/05/17 06:21:49;;;;;;;;;3.00;1.00;;;;;11.77;60.93;102733.25;5025023;28;10510;-66
2023/05/17 06:24:15;;;;;;;;;1.75;1.75;;;;;11.78;60.50;102744.91;5012771;28;9870;-66
2023/05/17 06:26:46;;;;;;;;;1.00;1.00;;;;;11.79;60.47;102736.66;5002145;28;10467;-66
2023/05/17 06:29:12;;;;;;;;;2.00;1.50;;;;;11.76;60.23;102746.91;5019702;28;9652;-66
2023/05/17 06:31:39;;;;;;;;;2.00;0.00;;;;;11.86;60.16;102748.53;5023919;28;9856;-67
2023/05/17 06:34:05;;;;;;;;;1.50;1.00;;;;;11.92;59.91;102754.34;5022511;28;9914;-66
2023/05/17 06:36:33;;;;;;;;;1.75;0.75;;;;;12.00;59.70;102752.53;5017569;28;9849;-66
2023/05/17 06:39:02;;;;;;;;;0.00;0.00;;;;;12.02;59.23;102749.69;5021242;28;9758;-66
2023/05/17 06:41:29;;;;;;;;;1.00;1.00;;;;;12.04;58.91;102750.38;5001250;28;9751;-66
2023/05/17 06:43:55;;;;;;;;;2.00;1.00;;;;;12.13;59.67;102760.22;5003714;28;9801;-65
2023/05/17 06:46:22;;;;;;;;;1.00;1.00;;;;;12.17;58.73;102763.47;5025762;28;9642;-66
2023/05/17 06:48:48;;;;;;;;;1.00;1.00;;;;;12.12;57.68;102766.66;5014780;28;9690;-66
2023/05/17 06:51:17;;;;;;;;;1.00;1.00;;;;;12.06;57.91;102765.41;5018572;28;9795;-66
2023/05/17 06:53:43;;;;;;;;;0.00;0.00;;;;;12.10;57.69;102766.78;5018772;28;9686;-67
2023/05/17 06:56:10;;;;;;;;;0.25;0.25;;;;;11.99;58.28;102763.47;5014166;28;9534;-66
2023/05/17 06:58:36;;;;;;;;;1.50;1.00;;;;;11.96;57.27;102774.63;5013344;28;10303;-65
2023/05/17 07:01:03;;;;;;;;;2.00;0.00;;;;;11.94;56.17;102766.66;4997355;28;9783;-66
2023/05/17 07:03:29;;;;;;;;;3.00;1.00;;;;;12.02;56.54;102773.97;5003377;28;9769;-66
2023/05/17 07:05:56;;;;;;;;;0.50;0.50;;;;;12.10;56.29;102772.19;5019536;28;9813;-66
2023/05/17 07:08:22;;;;;;;;;0.75;0.25;;;;;12.11;55.52;102778.41;5010775;28;9787;-66
2023/05/17 07:10:52;;;;;;;;;0.25;0.00;;;;;12.04;53.99;102780.91;5029429;28;10396;-66
2023/05/17 07:13:19;;;;;;;;;0.00;0.00;;;;;12.05;54.35;102781.75;5022579;28;9697;-66
2023/05/17 07:15:46;;;;;;;;;0.00;0.00;;;;;12.12;54.51;102780.97;5012811;28;9679;-66
2023/05/17 07:18:12;;;;;;;;;1.00;1.00;;;;;12.25;54.70;102793.22;5012363;28;9623;-66
2023/05/17 07:20:39;;;;;;;;;1.00;1.00;;;;;12.32;54.25;102789.75;5022962;28;9800;-66
2023/05/17 07:23:06;;;;;;;;;0.00;0.00;;;;;12.42;53.91;102788.78;5011071;28;9664;-66
2023/05/17 07:25:33;;;;;;;;;2.00;2.00;;;;;12.46;52.64;102782.91;5014515;28;9625;-66
2023/05/17 07:27:59;;;;;;;;;0.00;0.00;;;;;12.45;51.89;102788.47;5030848;28;10488;-66
2023/05/17 07:30:26;;;;;;;;;2.75;1.00;;;;;12.48;53.37;102790.88;5019470;28;9634;-68
2023/05/17 07:32:52;;;;;;;;;0.75;0.00;;;;;12.60;53.21;102784.19;5017934;28;9612;-66
2023/05/17 07:35:19;;;;;;;;;0.50;0.50;;;;;12.56;52.90;102794.47;5005461;28;9626;-66
2023/05/17 07:37:47;;;;;;;;;0.50;0.50;;;;;12.51;53.41;102801.31;5029834;28;9591;-65
2023/05/17 07:40:14;;;;;;;;;1.00;0.25;;;;;12.45;53.56;102800.13;5030411;28;10265;-65
2023/05/17 07:42:40;;;;;;;;;0.00;0.00;;;;;12.33;54.03;102807.63;5008071;28;9452;-66
2023/05/17 07:45:07;;;;;;;;;1.00;1.00;;;;;12.37;54.48;102808.16;5011562;28;9612;-65
2023/05/17 07:47:34;;;;;;;;;0.00;0.00;;;;;12.34;54.03;102820.13;5011867;28;9612;-65
2023/05/17 07:50:02;;;;;;;;;1.00;1.00;;;;;12.23;54.05;102817.66;5010592;28;9614;-66
2023/05/17 07:52:29;;;;;;;;;0.00;0.00;;;;;12.21;54.09;102825.09;5013228;28;9702;-66
2023/05/17 07:54:55;;;;;;;;;2.00;0.00;;;;;12.18;53.81;102829.94;5017104;28;9678;-65
2023/05/17 07:57:22;;;;;;;;;0.00;0.00;;;;;12.14;53.10;102832.09;5012856;28;9605;-66
2023/05/17 07:59:48;;;;;;;;;0.00;0.00;;;;;12.15;53.48;102831.09;5024508;28;9534;-66
2023/05/17 08:02:15;;;;;;;;;0.25;0.25;;;;;12.15;53.15;102828.41;5031517;28;9599;-65
2023/05/17 08:04:41;;;;;;;;;3.00;0.50;;;;;12.26;52.30;102827.31;5031243;28;10532;-66
2023/05/17 08:07:08;;;;;;;;;1.00;0.00;;;;;12.37;52.78;102827.91;5031441;28;9825;-66
2023/05/17 08:09:35;;;;;;;;;1.00;1.00;;;;;12.42;51.86;102835.53;5020551;28;9665;-66
2023/05/17 08:12:02;;;;;;;;;0.00;0.00;;;;;12.49;51.55;102830.38;5011277;28;9632;-65
2023/05/17 08:14:29;;;;;;;;;0.25;0.25;;;;;12.54;51.48;102825.31;5009771;28;9614;-65
2023/05/17 08:16:58;;;;;;;;;1.00;1.00;;;;;12.63;51.35;102830.63;5011206;28;9538;-66
2023/05/17 08:19:25;;;;;;;;;1.00;1.00;;;;;12.68;50.53;102830.16;5002648;28;9662;-66
2023/05/17 08:21:52;;;;;;;;;0.25;0.00;;;;;12.66;51.05;102834.88;5030894;28;9613;-66
2023/05/17 08:24:18;;;;;;;;;1.00;1.00;;;;;12.69;51.51;102839.13;5029950;28;9590;-66
2023/05/17 08:26:45;;;;;;;;;1.00;1.00;;;;;12.76;50.66;102832.91;5013130;28;9612;-65
2023/05/17 08:29:11;;;;;;;;;0.75;0.75;;;;;12.82;50.69;102839.53;5012826;28;10161;-66
2023/05/17 08:31:38;;;;;;;;;1.25;1.25;;;;;12.79;50.27;102834.44;5030850;28;9616;-65
2023/05/17 08:34:04;;;;;;;;;0.25;0.25;;;;;12.78;50.00;102838.16;5012840;28;9620;-66
2023/05/17 08:36:31;;;;;;;;;1.25;1.00;;;;;12.79;50.53;102837.97;5030617;28;9594;-65
2023/05/17 08:38:57;;;;;;;;;0.00;0.00;;;;;12.82;50.53;102837.66;5025895;28;9432;-65
2023/05/17 08:41:24;;;;;;;;;1.00;1.00;;;;;12.87;50.47;102842.59;5010994;28;9558;-65
2023/05/17 08:43:51;;;;;;;;;2.00;1.00;;;;;13.02;50.82;102829.31;5011127;28;9453;-67
2023/05/17 08:46:21;;;;;;;;;1.00;1.00;;;;;13.13;50.20;102845.28;4993122;28;9528;-66
2023/05/17 08:48:52;;;;;;;;;2.25;0.00;;;;;13.22;49.98;102830.75;4996394;28;9686;-66
2023/05/17 08:51:20;;;;;;;;;1.00;1.00;;;;;13.27;49.64;102841.97;5030850;28;9462;-66
2023/05/17 08:53:47;;;;;;;;;0.25;0.25;;;;;13.26;49.48;102840.28;5030192;28;9538;-67
2023/05/17 08:56:16;;;;;;;;;1.25;0.50;;;;;13.25;49.06;102846.69;5030326;28;9446;-66
2023/05/17 08:58:43;;;;;;;;;1.00;1.00;;;;;13.20;48.84;102843.59;5027933;28;9741;-66
2023/05/17 09:01:23;;;;;;;;;0.00;0.00;;;;;13.19;49.01;102846.47;5009338;28;10430;-66
2023/05/17 09:03:53;;;;;;;;;1.00;1.00;;;;;13.17;48.29;102835.81;5009266;28;9468;-66
2023/05/17 09:06:21;;;;;;;;;0.00;0.00;;;;;13.16;48.72;102839.50;5010281;28;9610;-67
2023/05/17 09:08:53;;;;;;;;;0.00;0.00;;;;;13.17;49.04;102835.81;4993087;28;10307;-66
2023/05/17 09:11:31;;;;;;;;;0.00;0.00;;;;;13.25;48.61;102845.84;4993192;28;9372;-66
2023/05/17 09:14:03;;;;;;;;;1.25;1.00;;;;;13.19;47.44;102844.59;5025501;28;9491;-67
2023/05/17 09:16:35;;;;;;;;;1.50;1.00;;;;;13.08;48.22;102844.88;5012670;28;9511;-66
2023/05/17 09:19:04;;;;;;;;;0.50;0.50;;;;;13.03;48.67;102850.78;5014908;28;9735;-66
2023/05/17 09:21:32;;;;;;;;;1.50;1.50;;;;;13.10;49.52;102840.19;5010629;28;9598;-66
2023/05/17 09:24:00;;;;;;;;;0.00;0.00;;;;;13.22;49.47;102843.44;5010683;28;9648;-66
2023/05/17 09:26:41;;;;;;;;;0.25;0.25;;;;;13.29;48.99;102853.47;5008967;28;9464;-66
2023/05/17 09:29:10;;;;;;;;;1.00;1.00;;;;;13.28;47.90;102853.63;5026384;28;9525;-66
2023/05/17 09:31:37;;;;;;;;;1.00;0.00;;;;;13.33;48.72;102854.00;5030067;28;10395;-66
2023/05/17 09:34:05;;;;;;;;;1.00;1.00;;;;;13.40;48.71;102848.78;5029829;28;9753;-66
2023/05/17 09:36:35;;;;;;;;;1.00;1.00;;;;;13.30;47.27;102838.94;5030274;28;9532;-66
2023/05/17 09:39:10;;;;;;;;;0.75;0.75;;;;;13.22;47.89;102849.69;5012686;28;9569;-66
2023/05/17 09:41:45;;;;;;;;;0.00;0.00;;;;;13.16;48.43;102846.78;5014138;28;9465;-68
2023/05/17 09:44:13;;;;;;;;;1.00;1.00;;;;;13.25;48.52;102853.97;4996443;28;9608;-66
2023/05/17 09:46:43;;;;;;;;;1.75;1.00;;;;;13.32;48.65;102849.59;5014303;28;9438;-66
2023/05/17 09:49:09;;;;;;;;;0.75;0.75;;;;;13.40;47.34;102855.03;5009081;28;9553;-66
2023/05/17 09:51:40;;;;;;;;;1.25;1.25;;;;;13.41;48.45;102861.28;5013907;28;9546;-66
2023/05/17 09:54:07;;;;;;;;;1.00;1.00;;;;;13.47;47.70;102856.06;5007910;28;9501;-66
2023/05/17 09:56:35;;;;;;;;;2.00;2.00;;;;;13.50;47.61;102863.88;5012673;28;9477;-66
2023/05/17 09:59:03;;;;;;;;;1.00;1.00;;;;;13.55;47.57;102863.38;5015073;28;9523;-67
2023/05/17 10:01:30;;;;;;;;;1.25;1.25;;;;;13.55;47.29;102856.09;4996407;28;9527;-67
2023/05/17 10:04:03;;;;;;;;;0.00;0.00;;;;;13.59;47.68;102862.88;4996202;28;9549;-66
2023/05/17 10:06:30;;;;;;;;;0.00;0.00;;;;;13.56;47.03;102862.34;5013851;28;9376;-67
2023/05/17 10:09:19;;;;;;;;;1.00;1.00;;;;;13.48;47.45;102867.72;5029346;28;9456;-66
2023/05/17 10:11:46;;;;;;;;;0.33;0.33;;;;;13.46;48.08;102861.66;5033568;28;9449;-66
2023/05/17 10:14:31;;;;;;;;;1.00;1.00;;;;;13.41;47.71;102875.69;5032804;28;9405;-66
2023/05/17 10:17:00;;;;;;;;;1.00;1.00;;;;;13.33;48.06;102870.25;5055289;23;9425;-69
2023/05/17 10:19:26;;;;;;;;;1.00;1.00;;;;;13.35;48.11;102866.34;5049712;28;9463;-70
2023/05/17 10:21:55;;;;;;;;;1.00;1.00;;;;;13.45;48.37;102858.09;5033067;28;10338;-69
2023/05/17 10:24:22;;;;;;;;;3.50;1.00;;;;;13.44;47.86;102855.53;5049543;28;9464;-70
2023/05/17 10:26:50;;;;;;;;;0.67;0.67;;;;;13.39;47.94;102863.31;5052858;28;9605;-69
2023/05/17 10:29:19;;;;;;;;;2.00;0.25;;;;;13.32;48.53;102872.06;5039215;28;9401;-70
2023/05/17 10:31:49;;;;;;;;;1.00;1.00;;;;;13.28;48.30;102865.28;5035487;28;9582;-70
2023/05/17 10:34:16;;;;;;;;;2.25;2.00;;;;;13.31;49.23;102859.56;5033473;28;9540;-69
2023/05/17 10:36:43;;;;;;;;;1.00;1.00;;;;;13.44;49.41;102850.13;5034825;28;9688;-67
2023/05/17 10:39:11;;;;;;;;;0.00;0.00;;;;;13.55;49.31;102861.50;5049459;28;9684;-69
2023/05/17 10:41:42;;;;;;;;;1.00;1.00;;;;;13.62;47.84;102853.59;5054031;28;9447;-69
2023/05/17 10:44:12;;;;;;;;;1.25;1.25;;;;;13.48;45.04;102868.56;5054860;28;9452;-69
2023/05/17 10:46:39;;;;;;;;;0.75;0.75;;;;;13.45;46.60;102868.06;5052949;28;9396;-69
2023/05/17 10:49:06;;;;;;;;;1.00;1.00;;;;;13.56;48.34;102867.75;5038233;28;9399;-68
2023/05/17 10:51:36;;;;;;;;;2.33;1.67;;;;;13.52;47.56;102872.66;5044497;28;9479;-69
2023/05/17 10:54:11;;;;;;;;;1.00;1.00;;;;;13.44;48.91;102861.81;5051492;28;9474;-69
2023/05/17 10:56:40;;;;;;;;;0.33;0.33;;;;;13.43;49.08;102865.53;5055737;28;9393;-68
2023/05/17 10:59:25;;;;;;;;;1.50;1.00;;;;;13.42;48.01;102865.69;5031691;28;9365;-69
2023/05/17 11:01:56;;;;;;;;;1.00;1.00;;;;;13.25;48.45;102872.91;5032867;28;9398;-69
2023/05/17 11:04:27;;;;;;;;;0.25;0.25;;;;;13.29;50.05;102872.41;5047874;28;9380;-70
2023/05/17 11:07:12;;;;;;;;;0.00;0.00;;;;;13.44;49.79;102874.47;5046606;28;9515;-68
2023/05/17 11:09:39;;;;;;;;;1.00;1.00;;;;;13.55;48.32;102871.50;5052475;28;9479;-69
2023/05/17 11:12:08;;;;;;;;;3.00;2.00;;;;;13.34;48.23;102870.06;5067388;28;10357;-69
2023/05/17 11:14:55;;;;;;;;;2.00;1.00;;;;;13.21;48.62;102869.63;5052660;28;9597;-69
2023/05/17 11:17:26;;;;;;;;;2.25;1.00;;;;;13.17;49.57;102876.38;5034023;28;9484;-70
2023/05/17 11:20:01;;;;;;;;;1.25;1.00;;;;;13.29;47.84;102871.56;5032610;28;9436;-68
2023/05/17 11:22:41;;;;;;;;;1.00;1.00;;;;;13.36;48.34;102883.41;5032184;28;9356;-68
2023/05/17 11:25:10;;;;;;;;;2.00;1.00;;;;;13.32;48.21;102882.03;5031944;28;9604;-70
2023/05/17 11:27:48;;;;;;;;;0.00;0.00;;;;;13.32;48.89;102882.03;5051716;28;9651;-69
2023/05/17 11:30:29;;;;;;;;;1.50;1.50;;;;;13.24;47.99;102882.00;5049925;28;9575;-69
2023/05/17 11:33:05;;;;;;;;;4.25;2.00;;;;;13.33;48.34;102883.75;5032152;28;9536;-69
2023/05/17 11:35:46;;;;;;;;;0.50;0.00;;;;;13.38;46.90;102878.69;5050139;28;9608;-70
2023/05/17 11:38:20;;;;;;;;;2.00;2.00;;;;;13.41;47.35;102874.81;5050527;28;9532;-69